TZX weather

Trabzon International Airport
Trabzon, Trabzon Province, Turkey

Public forecast

Using degrees Celsius for public forecast. Weather courtesy of forecast.io.

Current aviation weather report (METAR) for Trabzon International Airport

Retrieved 2020/07/11 20:20 UTC (6 minutes ago):

LTCG 112020Z 23004KT 9999 BKN035 24/20 Q1011 NOSIG RMK RWY29 VRB02KT

Aviation forecast (TAF) for Trabzon International Airport

Retrieved 2020/07/11 18:03 UTC (2 hours ago):

TAF LTCG 111640Z 1118/1218 VRB02KT 9999 BKN035 PROB40 TEMPO 1200/1204 -SHRA SCT012 BKN028 TEMPO 1212/1216 -TSRA SCT012 FEW020CB BKN028